createdAt,value
2017-06-27T03:54:51.685Z,4.67
2017-06-27T03:57:18.523Z,4.50
2017-06-27T03:59:45.282Z,4.33
2017-06-27T04:02:12.240Z,4.70
2017-06-27T04:04:39.458Z,5.50
2017-06-27T04:07:06.195Z,4.47
2017-06-27T04:09:32.997Z,4.10
2017-06-27T04:11:59.802Z,3.83
2017-06-27T04:14:26.565Z,3.93
2017-06-27T04:16:53.363Z,3.77
2017-06-27T04:19:20.152Z,3.60
2017-06-27T04:21:46.939Z,4.30
2017-06-27T04:24:13.702Z,4.30
2017-06-27T04:26:40.544Z,4.07
2017-06-27T04:29:07.317Z,4.20
2017-06-27T04:31:34.256Z,4.00
2017-06-27T04:34:01.169Z,5.50
2017-06-27T04:36:28.064Z,4.43
2017-06-27T04:38:54.874Z,2.60
2017-06-27T04:41:21.754Z,3.47
2017-06-27T04:43:48.524Z,3.30
2017-06-27T04:46:15.314Z,3.03
2017-06-27T04:48:42.106Z,3.50
2017-06-27T04:51:08.847Z,2.73
2017-06-27T04:53:35.649Z,2.47
2017-06-27T04:56:02.416Z,2.87
2017-06-27T04:58:29.197Z,3.23
2017-06-27T05:00:56.031Z,2.80
2017-06-27T05:03:22.800Z,3.07
2017-06-27T05:05:49.531Z,3.20
2017-06-27T05:08:16.321Z,3.13
2017-06-27T05:10:43.089Z,2.70
2017-06-27T05:13:09.851Z,2.07
2017-06-27T05:15:36.692Z,1.90
2017-06-27T05:18:03.521Z,2.50
2017-06-27T05:20:30.302Z,2.50
2017-06-27T05:22:57.144Z,2.53
2017-06-27T05:25:23.922Z,2.10
2017-06-27T05:27:50.725Z,2.60
2017-06-27T05:30:17.490Z,2.30
2017-06-27T05:32:44.236Z,2.70
2017-06-27T05:35:10.976Z,3.13
2017-06-27T05:37:37.773Z,2.60
2017-06-27T05:40:04.524Z,2.23
2017-06-27T05:42:31.287Z,3.67
2017-06-27T05:44:58.132Z,2.30
2017-06-27T05:47:24.873Z,2.50
2017-06-27T05:49:51.618Z,2.60
2017-06-27T05:52:18.434Z,2.00
2017-06-27T05:54:45.198Z,2.20
2017-06-27T05:57:11.963Z,2.67
2017-06-27T05:59:38.765Z,1.80
2017-06-27T06:02:05.502Z,2.60
2017-06-27T06:04:32.242Z,2.20
2017-06-27T06:06:59.036Z,2.30
2017-06-27T06:09:25.853Z,3.03
2017-06-27T06:11:52.622Z,2.73
2017-06-27T06:14:19.410Z,2.10
2017-06-27T06:16:46.177Z,2.20
2017-06-27T06:19:13.019Z,3.13
2017-06-27T06:21:39.837Z,2.53
2017-06-27T06:24:06.606Z,2.03
2017-06-27T06:26:33.370Z,1.47
2017-06-27T06:29:00.197Z,4.17
2017-06-27T06:31:26.935Z,2.10
2017-06-27T06:33:53.696Z,1.70
2017-06-27T06:36:20.518Z,1.80
2017-06-27T06:38:47.273Z,1.90
2017-06-27T06:41:14.020Z,2.43
2017-06-27T06:43:40.833Z,2.90
2017-06-27T06:46:07.588Z,1.70
2017-06-27T06:48:34.366Z,2.00
2017-06-27T06:51:01.167Z,1.97
2017-06-27T06:53:27.936Z,1.53
2017-06-27T06:55:54.699Z,1.80
2017-06-27T06:58:21.510Z,2.27
2017-06-27T07:00:48.276Z,2.00
2017-06-27T07:03:15.054Z,1.90
2017-06-27T07:05:41.848Z,1.80
2017-06-27T07:08:08.597Z,2.10
2017-06-27T07:10:35.377Z,2.40
2017-06-27T07:13:02.199Z,2.10
2017-06-27T07:15:28.950Z,2.77
2017-06-27T07:17:55.717Z,1.67
2017-06-27T07:20:22.508Z,1.70
2017-06-27T07:22:49.313Z,2.20
2017-06-27T07:25:16.095Z,2.83
2017-06-27T07:27:42.887Z,2.77
2017-06-27T07:30:09.698Z,2.47
2017-06-27T07:32:36.440Z,2.03
2017-06-27T07:35:03.253Z,2.47
2017-06-27T07:37:30.080Z,2.57
2017-06-27T07:39:56.846Z,1.70
2017-06-27T07:42:23.638Z,2.03
2017-06-27T07:44:50.383Z,2.43
2017-06-27T07:47:17.124Z,2.13
2017-06-27T07:49:43.937Z,3.00
2017-06-27T07:52:10.679Z,2.20
2017-06-27T07:54:37.449Z,3.20
2017-06-27T07:57:04.257Z,2.30
2017-06-27T07:59:31.017Z,1.90
2017-06-27T08:01:57.770Z,2.00
2017-06-27T08:04:24.577Z,2.07
2017-06-27T08:06:51.326Z,2.50
2017-06-27T08:09:18.078Z,2.80
2017-06-27T08:11:44.898Z,1.70
2017-06-27T08:14:11.657Z,2.30
2017-06-27T08:16:38.449Z,2.13
2017-06-27T08:19:05.231Z,1.67
2017-06-27T08:21:32.000Z,2.20
2017-06-27T08:23:58.742Z,2.03
2017-06-27T08:26:25.540Z,1.97
2017-06-27T08:28:52.280Z,2.00
2017-06-27T08:31:19.051Z,1.80
2017-06-27T08:33:45.876Z,2.03
2017-06-27T08:36:12.620Z,1.43
2017-06-27T08:38:39.385Z,1.60
2017-06-27T08:41:06.220Z,2.17
2017-06-27T08:43:33.008Z,1.53
2017-06-27T08:45:59.800Z,1.70
2017-06-27T08:48:26.586Z,2.50
2017-06-27T08:50:53.386Z,2.20
2017-06-27T08:53:20.154Z,2.60
2017-06-27T08:55:46.943Z,2.30
2017-06-27T08:58:13.704Z,1.40
2017-06-27T09:00:40.456Z,1.53
2017-06-27T09:03:07.265Z,1.67
2017-06-27T09:05:34.020Z,1.90
2017-06-27T09:08:00.789Z,2.00
2017-06-27T09:10:27.587Z,1.70
2017-06-27T09:12:54.343Z,2.63
2017-06-27T09:15:21.105Z,1.47
2017-06-27T09:17:47.910Z,1.80
2017-06-27T09:20:14.667Z,2.30
2017-06-27T09:22:41.431Z,1.70
2017-06-27T09:25:08.226Z,2.60
2017-06-27T09:27:34.998Z,1.90
2017-06-27T09:30:01.782Z,2.23
2017-06-27T09:32:28.570Z,1.73
2017-06-27T09:37:28.487Z,2.70
2017-06-27T09:39:55.263Z,2.00
2017-06-27T09:42:23.867Z,2.10
2017-06-27T09:44:50.652Z,1.60
2017-06-27T09:47:17.398Z,2.00
2017-06-27T09:49:44.138Z,2.63
2017-06-27T09:52:10.938Z,1.60
2017-06-27T09:54:37.693Z,1.90
2017-06-27T09:57:04.466Z,2.50
2017-06-27T09:59:31.261Z,2.20
2017-06-27T10:01:58.040Z,2.27
2017-06-27T10:04:24.915Z,2.07
2017-06-27T10:06:51.738Z,2.10
2017-06-27T10:09:18.513Z,2.10
2017-06-27T10:11:45.288Z,2.80
2017-06-27T10:14:12.068Z,2.10
2017-06-27T10:16:38.822Z,2.27
2017-06-27T10:19:05.614Z,1.80
2017-06-27T10:21:32.416Z,2.00
2017-06-27T10:23:59.173Z,2.63
2017-06-27T10:26:26.140Z,2.07
2017-06-27T10:28:52.988Z,1.70
2017-06-27T10:31:19.758Z,1.93
2017-06-27T10:33:46.525Z,2.10
2017-06-27T10:36:13.332Z,1.83
2017-06-27T10:38:40.073Z,2.20
2017-06-27T10:41:06.817Z,2.17
2017-06-27T10:43:33.604Z,2.40
2017-06-27T10:46:00.411Z,1.87
2017-06-27T10:48:27.238Z,2.10
2017-06-27T10:50:54.052Z,2.17
2017-06-27T10:53:20.828Z,2.20
2017-06-27T10:55:47.581Z,2.47
2017-06-27T10:58:14.445Z,2.50
2017-06-27T11:00:41.260Z,2.43
2017-06-27T11:03:08.010Z,3.13
2017-06-27T11:05:34.810Z,2.13
2017-06-27T11:08:01.571Z,2.50
2017-06-27T11:10:28.331Z,2.83
2017-06-27T11:12:55.127Z,1.90
2017-06-27T11:15:21.888Z,2.10
2017-06-27T11:17:48.658Z,2.07
2017-06-27T11:20:15.508Z,2.67
2017-06-27T11:22:42.287Z,2.60
2017-06-27T11:25:09.039Z,3.50
2017-06-27T11:27:35.842Z,3.00
2017-06-27T11:30:02.583Z,2.67
2017-06-27T11:32:29.330Z,3.10
2017-06-27T11:34:56.126Z,2.30
2017-06-27T11:37:22.887Z,2.80
2017-06-27T11:39:49.639Z,2.70
2017-06-27T11:42:16.486Z,2.60
2017-06-27T11:44:43.302Z,2.97
2017-06-27T11:47:10.072Z,2.77
2017-06-27T11:49:36.890Z,2.10
2017-06-27T11:52:03.657Z,2.30
2017-06-27T11:54:30.425Z,2.10
2017-06-27T11:56:57.213Z,2.90
2017-06-27T11:59:24.006Z,2.67
2017-06-27T12:01:56.679Z,2.70
2017-06-27T12:04:27.454Z,2.83
2017-06-27T12:06:55.111Z,2.80
2017-06-27T12:09:27.954Z,3.33
2017-06-27T12:11:54.718Z,3.03
2017-06-27T12:14:21.474Z,2.30
2017-06-27T12:16:48.276Z,2.60
2017-06-27T12:19:15.034Z,2.60
2017-06-27T12:21:41.778Z,2.53
2017-06-27T12:24:08.605Z,3.00
2017-06-27T12:26:35.368Z,2.83
2017-06-27T12:29:02.148Z,3.17
2017-06-27T12:31:28.954Z,2.77
2017-06-27T12:33:55.698Z,3.77
2017-06-27T12:36:22.438Z,2.97
2017-06-27T12:38:49.589Z,2.40
2017-06-27T12:41:16.343Z,2.33
2017-06-27T12:43:43.115Z,2.77
2017-06-27T12:46:09.909Z,2.87
2017-06-27T12:48:36.669Z,2.60
2017-06-27T12:51:03.456Z,2.30
2017-06-27T12:53:30.261Z,2.43
2017-06-27T12:55:57.030Z,2.70
2017-06-27T12:58:23.823Z,2.47
2017-06-27T13:00:50.602Z,3.47
2017-06-27T13:03:17.343Z,2.53
2017-06-27T13:05:44.199Z,2.73
2017-06-27T13:08:11.030Z,3.10
2017-06-27T13:10:37.792Z,3.30
2017-06-27T13:13:04.552Z,2.33
2017-06-27T13:15:31.371Z,2.13
2017-06-27T13:17:58.110Z,1.90
2017-06-27T13:20:24.878Z,2.20
2017-06-27T13:22:51.693Z,2.13
2017-06-27T13:25:18.448Z,2.53
2017-06-27T13:27:45.221Z,2.30
2017-06-27T13:30:12.773Z,2.50
2017-06-27T13:32:39.553Z,2.13
2017-06-27T13:35:06.298Z,2.40
2017-06-27T13:37:33.110Z,2.17
2017-06-27T13:39:59.867Z,2.67
2017-06-27T13:42:26.634Z,2.50
2017-06-27T13:44:53.518Z,2.17
2017-06-27T13:47:20.323Z,3.10
2017-06-27T13:49:47.136Z,2.90
2017-06-27T13:52:13.957Z,2.90
2017-06-27T13:54:40.714Z,2.80
2017-06-27T13:57:07.531Z,2.67
2017-06-27T13:59:34.364Z,2.93
2017-06-27T14:02:01.128Z,2.50
2017-06-27T14:04:27.919Z,2.03
2017-06-27T14:06:54.751Z,2.53
2017-06-27T14:09:21.512Z,2.40
2017-06-27T14:11:48.247Z,2.40
2017-06-27T14:14:15.035Z,2.43
2017-06-27T14:16:41.813Z,1.90
2017-06-27T14:19:08.622Z,2.37
2017-06-27T14:21:35.468Z,2.10
2017-06-27T14:24:02.229Z,2.70
2017-06-27T14:26:28.994Z,2.33
2017-06-27T14:28:55.825Z,2.40
2017-06-27T14:31:22.605Z,2.00
2017-06-27T14:33:49.390Z,2.60
2017-06-27T14:36:16.249Z,2.60
2017-06-27T14:38:42.987Z,2.33
2017-06-27T14:41:09.759Z,2.80
2017-06-27T14:43:36.578Z,2.80
2017-06-27T14:46:03.369Z,2.10
2017-06-27T14:48:30.133Z,2.10
2017-06-27T14:50:57.006Z,2.50
2017-06-27T14:53:23.854Z,2.50
2017-06-27T14:55:50.680Z,2.10
2017-06-27T14:58:18.181Z,2.07
2017-06-27T15:00:45.019Z,2.30
2017-06-27T15:03:11.758Z,3.20
2017-06-27T15:05:38.582Z,2.40
2017-06-27T15:08:05.334Z,3.00
2017-06-27T15:10:32.143Z,2.30
2017-06-27T15:12:59.007Z,2.33
2017-06-27T15:15:25.777Z,2.80
2017-06-27T15:17:52.539Z,3.03
2017-06-27T15:20:19.322Z,2.37
2017-06-27T15:22:46.130Z,2.03
2017-06-27T15:25:12.926Z,2.83
2017-06-27T15:27:39.785Z,2.17
2017-06-27T15:30:06.534Z,2.40
2017-06-27T15:32:33.286Z,2.50
2017-06-27T15:35:00.115Z,2.33
2017-06-27T15:37:26.874Z,2.30
2017-06-27T15:39:53.614Z,3.13
2017-06-27T15:42:20.494Z,2.50
2017-06-27T15:44:47.254Z,2.10
2017-06-27T15:47:14.021Z,2.80
2017-06-27T15:49:40.802Z,2.70
2017-06-27T15:52:07.622Z,2.50
2017-06-27T15:54:34.429Z,2.70
2017-06-27T15:57:01.236Z,2.10
2017-06-27T15:59:28.123Z,2.23
2017-06-27T16:01:54.885Z,2.20
2017-06-27T16:04:21.706Z,3.77
2017-06-27T16:06:48.491Z,3.07
2017-06-27T16:09:15.258Z,2.30
2017-06-27T16:11:42.100Z,2.20
2017-06-27T16:14:08.881Z,2.40
2017-06-27T16:16:35.645Z,3.07
2017-06-27T16:19:02.610Z,2.10
2017-06-27T16:21:29.351Z,2.90
2017-06-27T16:23:56.120Z,2.87
2017-06-27T16:26:22.929Z,2.10
2017-06-27T16:28:49.768Z,2.50
2017-06-27T16:31:16.540Z,2.10
2017-06-27T16:33:43.350Z,2.83
2017-06-27T16:36:10.147Z,3.87
2017-06-27T16:38:36.908Z,2.40
2017-06-27T16:41:04.035Z,2.87
2017-06-27T16:43:30.796Z,2.50
2017-06-27T16:45:57.569Z,2.97
2017-06-27T16:48:24.360Z,2.60
2017-06-27T16:50:51.114Z,3.20
2017-06-27T16:53:17.944Z,2.60
2017-06-27T16:55:44.734Z,2.53
2017-06-27T16:58:11.482Z,2.30
2017-06-27T17:00:38.241Z,2.57
2017-06-27T17:03:05.943Z,2.30
2017-06-27T17:05:32.692Z,2.97
2017-06-27T17:07:59.477Z,2.00
2017-06-27T17:10:26.270Z,3.00
2017-06-27T17:12:53.039Z,2.70
2017-06-27T17:15:19.853Z,2.77
2017-06-27T17:17:46.699Z,2.80
2017-06-27T17:20:13.435Z,2.20
2017-06-27T17:22:40.305Z,2.47
2017-06-27T17:25:07.080Z,2.63
2017-06-27T17:27:33.885Z,2.73
2017-06-27T17:30:00.825Z,2.60
2017-06-27T17:32:27.653Z,2.80
2017-06-27T17:34:54.426Z,2.77
2017-06-27T17:37:21.367Z,3.60
2017-06-27T17:39:48.195Z,2.67
2017-06-27T17:42:14.994Z,2.23
2017-06-27T17:44:41.754Z,2.43
2017-06-27T17:47:08.626Z,4.43
2017-06-27T17:49:35.393Z,3.30
2017-06-27T17:52:02.200Z,2.20
2017-06-27T17:54:29.015Z,2.40
2017-06-27T17:56:55.831Z,2.30
2017-06-27T17:59:22.606Z,1.90
2017-06-27T18:01:49.428Z,2.90
2017-06-27T18:04:16.195Z,3.10
2017-06-27T18:06:42.958Z,2.50
2017-06-27T18:09:09.780Z,2.83
2017-06-27T18:11:36.569Z,2.20
2017-06-27T18:14:03.326Z,2.20
2017-06-27T18:16:30.170Z,2.40
2017-06-27T18:18:56.925Z,2.90
2017-06-27T18:21:23.713Z,2.33
2017-06-27T18:23:50.518Z,2.50
2017-06-27T18:26:17.398Z,2.80
2017-06-27T18:28:44.188Z,2.60
2017-06-27T18:31:11.075Z,2.43
2017-06-27T18:33:37.944Z,2.67
2017-06-27T18:36:04.729Z,3.60
2017-06-27T18:38:31.551Z,2.77
2017-06-27T18:40:58.339Z,2.97
2017-06-27T18:43:25.112Z,3.30
2017-06-27T18:45:51.920Z,2.80
2017-06-27T18:48:18.704Z,2.93
2017-06-27T18:50:45.448Z,3.17
2017-06-27T18:53:12.267Z,2.87
2017-06-27T18:55:39.037Z,3.07
2017-06-27T18:58:05.812Z,4.00
2017-06-27T19:00:32.650Z,2.80
2017-06-27T19:02:59.441Z,3.00
2017-06-27T19:05:26.202Z,2.70
2017-06-27T19:07:53.020Z,3.07
2017-06-27T19:10:19.883Z,3.10
2017-06-27T19:12:46.661Z,2.80
2017-06-27T19:15:13.466Z,3.20
2017-06-27T19:17:40.237Z,3.07
2017-06-27T19:20:07.011Z,2.87
2017-06-27T19:22:33.844Z,2.70
2017-06-27T19:25:00.654Z,3.50
2017-06-27T19:27:27.435Z,2.60
2017-06-27T19:29:54.253Z,3.40
2017-06-27T19:32:21.016Z,3.20
2017-06-27T19:34:47.795Z,3.00
2017-06-27T19:37:14.612Z,3.20
2017-06-27T19:39:41.376Z,3.03
2017-06-27T19:42:08.185Z,4.23
2017-06-27T19:44:34.993Z,3.37
2017-06-27T19:47:01.802Z,3.17
2017-06-27T19:49:28.586Z,3.00
2017-06-27T19:51:55.386Z,2.80
2017-06-27T19:54:22.172Z,2.83
2017-06-27T19:56:48.933Z,2.77
2017-06-27T19:59:15.758Z,3.20
2017-06-27T20:01:42.566Z,3.00
2017-06-27T20:04:09.394Z,3.77
2017-06-27T20:06:36.246Z,3.17
2017-06-27T20:09:03.060Z,3.10
2017-06-27T20:11:29.859Z,3.50
2017-06-27T20:13:56.711Z,3.20
2017-06-27T20:16:23.507Z,3.20
2017-06-27T20:18:50.269Z,4.13
2017-06-27T20:21:17.129Z,4.60
2017-06-27T20:23:44.002Z,3.10
2017-06-27T20:26:10.793Z,4.00
2017-06-27T20:28:37.727Z,4.20
2017-06-27T20:31:04.509Z,3.30
2017-06-27T20:33:31.303Z,3.10
2017-06-27T20:35:58.103Z,4.60
2017-06-27T20:38:24.878Z,3.43
2017-06-27T20:40:51.677Z,4.10
2017-06-27T20:43:18.462Z,3.40
2017-06-27T20:45:45.250Z,3.30
2017-06-27T20:48:12.014Z,3.40
2017-06-27T20:50:38.829Z,2.80
2017-06-27T20:53:05.604Z,3.07
2017-06-27T20:55:32.379Z,2.87
2017-06-27T20:57:59.190Z,3.07
2017-06-27T21:00:25.935Z,3.47
2017-06-27T21:02:52.792Z,3.50
2017-06-27T21:05:19.597Z,3.40
2017-06-27T21:07:46.372Z,3.30
2017-06-27T21:10:13.137Z,2.87
2017-06-27T21:12:39.922Z,3.23
2017-06-27T21:15:06.719Z,4.17
2017-06-27T21:17:33.484Z,3.70
2017-06-27T21:20:00.314Z,3.20
2017-06-27T21:22:27.071Z,2.93
2017-06-27T21:24:53.867Z,3.33
2017-06-27T21:27:20.678Z,3.50
2017-06-27T21:29:47.455Z,3.60
2017-06-27T21:32:14.205Z,3.60
2017-06-27T21:34:41.011Z,3.40
2017-06-27T21:37:07.889Z,3.67
2017-06-27T21:39:34.644Z,4.03
2017-06-27T21:42:01.453Z,3.70
2017-06-27T21:44:28.250Z,3.80
2017-06-27T21:46:55.008Z,3.50
2017-06-27T21:49:21.819Z,3.60
2017-06-27T21:51:48.590Z,3.43
2017-06-27T21:54:15.366Z,3.37
2017-06-27T21:56:42.177Z,3.63
2017-06-27T21:59:08.946Z,3.20
2017-06-27T22:01:35.710Z,3.20
2017-06-27T22:04:02.511Z,2.80
2017-06-27T22:06:29.286Z,3.70
2017-06-27T22:08:56.086Z,4.83
2017-06-27T22:11:22.889Z,3.80
2017-06-27T22:13:49.647Z,2.80
2017-06-27T22:16:16.421Z,2.70
2017-06-27T22:18:43.230Z,3.80
